Time;durP1;ratioP1;P1;durP2;ratioP2;P2;SDS_P1;SDS_P2;PMS_P1;PMS_P2;Temp;Humidity;BMP_temperature;BMP_pressure;BME280_temperature;BME280_humidity;BME280_pressure;Samples;Min_cycle;Max_cycle;Signal;HPM_P1;HPM_P2
2022/12/23 00:01:18;;;;;;;13.18;8.65;;;;;;;;;;5281651;28;20066;-68
2022/12/23 00:03:49;;;;;;;12.50;7.45;;;;;;;;;;5281797;28;20028;-68
2022/12/23 00:06:21;;;;;;;9.27;8.02;;;;;;;;;;5281244;28;20111;-68
2022/12/23 00:08:56;;;;;;;13.25;8.50;;;;;;;;;;5282161;28;20020;-68
2022/12/23 00:11:28;;;;;;;12.82;8.77;;;;;;;;;;5281859;28;20070;-68
2022/12/23 00:16:49;;;;;;;15.10;10.80;;;;;;;;;;5281665;28;20468;-68
2022/12/23 00:19:20;;;;;;;16.10;11.63;;;;;;;;;;5281939;28;20028;-68
2022/12/23 00:21:51;;;;;;;12.90;11.07;;;;;;;;;;5281065;28;20096;-68
2022/12/23 00:24:22;;;;;;;19.85;12.82;;;;;;;;;;5281891;28;20032;-67
2022/12/23 00:26:54;;;;;;;15.63;11.40;;;;;;;;;;5281765;28;20040;-68
2022/12/23 00:29:25;;;;;;;18.20;12.35;;;;;;;;;;5280979;28;20070;-68
2022/12/23 00:31:56;;;;;;;16.45;12.95;;;;;;;;;;5281888;28;20383;-68
2022/12/23 00:34:27;;;;;;;18.42;12.55;;;;;;;;;;5281052;28;20067;-68
2022/12/23 00:36:58;;;;;;;16.60;11.68;;;;;;;;;;5281588;28;20028;-68
2022/12/23 00:45:15;;;;;;;18.42;11.10;;;;;;;;;;5281709;28;20044;-68
2022/12/23 00:50:38;;;;;;;17.23;11.63;;;;;;;;;;5281407;28;20037;-69
2022/12/23 00:53:09;;;;;;;14.98;10.75;;;;;;;;;;5281859;28;20105;-68
2022/12/23 00:55:40;;;;;;;18.23;12.65;;;;;;;;;;5280436;28;20064;-68
2022/12/23 00:58:11;;;;;;;17.17;11.43;;;;;;;;;;5281556;28;20502;-68
2022/12/23 01:06:22;;;;;;;17.00;13.13;;;;;;;;;;5285594;28;20025;-68
2022/12/23 01:08:53;;;;;;;20.08;13.02;;;;;;;;;;5285461;28;20021;-68
2022/12/23 01:11:25;;;;;;;20.25;14.07;;;;;;;;;;5284863;28;20472;-68
2022/12/23 01:13:56;;;;;;;21.48;13.85;;;;;;;;;;5285321;28;20044;-69
2022/12/23 01:16:28;;;;;;;19.92;14.00;;;;;;;;;;5284778;28;20452;-68
2022/12/23 01:18:59;;;;;;;18.52;13.05;;;;;;;;;;5285268;28;20032;-68
2022/12/23 01:21:30;;;;;;;18.40;13.32;;;;;;;;;;5285517;28;20017;-68
2022/12/23 01:24:01;;;;;;;21.60;13.82;;;;;;;;;;5284319;28;20031;-68
2022/12/23 01:26:32;;;;;;;19.77;14.65;;;;;;;;;;5285206;28;20401;-68
2022/12/23 01:29:04;;;;;;;17.98;13.27;;;;;;;;;;5285092;28;20024;-68
2022/12/23 01:31:35;;;;;;;20.80;14.60;;;;;;;;;;5284383;28;20017;-69
2022/12/23 01:34:06;;;;;;;21.55;14.77;;;;;;;;;;5284865;28;20106;-68
2022/12/23 01:36:37;;;;;;;17.85;14.43;;;;;;;;;;5284851;28;20422;-69
2022/12/23 01:39:09;;;;;;;20.05;14.98;;;;;;;;;;5284333;28;20039;-68
2022/12/23 01:44:48;;;;;;;19.55;13.30;;;;;;;;;;5284202;28;20044;-68
2022/12/23 01:47:23;;;;;;;20.00;16.27;;;;;;;;;;5284997;28;20024;-68
2022/12/23 01:50:12;;;;;;;20.58;15.90;;;;;;;;;;5284657;28;20081;-69
2022/12/23 01:53:02;;;;;;;21.27;15.80;;;;;;;;;;5283719;28;20016;-69
2022/12/23 01:55:39;;;;;;;19.25;15.55;;;;;;;;;;5284709;28;20403;-69
2022/12/23 01:58:16;;;;;;;18.90;15.88;;;;;;;;;;5284787;28;20036;-69
2022/12/23 02:03:43;;;;;;;18.88;14.85;;;;;;;;;;5284472;28;20033;-68
2022/12/23 02:09:32;;;;;;;21.08;16.80;;;;;;;;;;5284470;28;20025;-68
2022/12/23 02:12:20;;;;;;;20.70;17.42;;;;;;;;;;5284112;28;20061;-69
2022/12/23 02:18:09;;;;;;;17.30;15.55;;;;;;;;;;5284166;28;20523;-69
2022/12/23 02:21:09;;;;;;;19.90;16.98;;;;;;;;;;5283133;28;20879;-70
2022/12/23 02:23:59;;;;;;;17.00;15.35;;;;;;;;;;5283729;28;20032;-69
2022/12/23 02:26:30;;;;;;;19.55;15.13;;;;;;;;;;5284066;28;20487;-68
2022/12/23 02:29:20;;;;;;;17.45;15.40;;;;;;;;;;5283321;28;20028;-68
2022/12/23 02:32:14;;;;;;;15.88;14.27;;;;;;;;;;5283829;28;20313;-69
2022/12/23 02:35:11;;;;;;;16.75;14.90;;;;;;;;;;5283053;28;20510;-69
2022/12/23 02:38:05;;;;;;;17.27;15.20;;;;;;;;;;5267022;28;20033;-69
2022/12/23 02:40:48;;;;;;;16.90;15.15;;;;;;;;;;5283809;28;20032;-69
2022/12/23 02:43:38;;;;;;;15.45;13.68;;;;;;;;;;5284163;28;20032;-70
2022/12/23 02:46:20;;;;;;;16.13;14.52;;;;;;;;;;5283860;28;20403;-68
2022/12/23 02:49:11;;;;;;;16.25;14.13;;;;;;;;;;5282602;28;20024;-68
2022/12/23 02:51:45;;;;;;;17.52;13.77;;;;;;;;;;5283110;28;20021;-70
2022/12/23 02:54:19;;;;;;;17.00;14.13;;;;;;;;;;5283657;28;20039;-68
2022/12/23 02:56:51;;;;;;;16.27;12.80;;;;;;;;;;5282645;28;20025;-69
2022/12/23 02:59:24;;;;;;;16.60;13.98;;;;;;;;;;5283484;28;20046;-68
2022/12/23 03:01:56;;;;;;;14.30;12.90;;;;;;;;;;5282685;28;20028;-68
2022/12/23 03:04:27;;;;;;;14.30;12.90;;;;;;;;;;5283403;28;20048;-68
2022/12/23 03:06:59;;;;;;;14.50;12.80;;;;;;;;;;5283134;28;20273;-68
2022/12/23 03:09:39;;;;;;;14.55;12.43;;;;;;;;;;5282046;28;20021;-68
2022/12/23 03:12:18;;;;;;;14.07;12.63;;;;;;;;;;5283465;28;20108;-68
2022/12/23 03:14:56;;;;;;;14.40;12.97;;;;;;;;;;5282513;28;20024;-68
2022/12/23 03:17:37;;;;;;;15.25;13.32;;;;;;;;;;5282098;28;20353;-68
2022/12/23 03:20:19;;;;;;;13.75;12.45;;;;;;;;;;5282716;28;20413;-68
2022/12/23 03:23:09;;;;;;;16.65;12.90;;;;;;;;;;5282296;28;20501;-68
2022/12/23 03:25:45;;;;;;;13.18;11.75;;;;;;;;;;5281484;28;20036;-68
2022/12/23 03:28:19;;;;;;;16.55;13.38;;;;;;;;;;5283063;28;20100;-68
2022/12/23 03:30:52;;;;;;;15.75;12.23;;;;;;;;;;5281670;28;20028;-68
2022/12/23 03:33:29;;;;;;;14.60;13.05;;;;;;;;;;5282659;28;20017;-68
2022/12/23 03:36:04;;;;;;;15.52;13.30;;;;;;;;;;5282536;28;20024;-67
2022/12/23 03:38:37;;;;;;;13.98;12.45;;;;;;;;;;5281610;28;20052;-68
2022/12/23 03:41:12;;;;;;;14.13;12.63;;;;;;;;;;5282739;28;20016;-68
2022/12/23 03:43:50;;;;;;;14.32;12.50;;;;;;;;;;5281848;28;20111;-69
2022/12/23 03:46:26;;;;;;;15.35;13.48;;;;;;;;;;5281801;28;20542;-69
2022/12/23 03:48:59;;;;;;;18.30;13.95;;;;;;;;;;5282270;28;20024;-68
2022/12/23 03:51:33;;;;;;;16.05;12.68;;;;;;;;;;5281504;28;20017;-69
2022/12/23 03:54:08;;;;;;;17.48;12.95;;;;;;;;;;5282390;28;20107;-68
2022/12/23 03:56:44;;;;;;;15.43;13.07;;;;;;;;;;5281990;28;20044;-69
2022/12/23 03:59:20;;;;;;;13.93;12.52;;;;;;;;;;5281644;28;20044;-69
2022/12/23 04:02:05;;;;;;;15.00;13.50;;;;;;;;;;5282261;28;20025;-69
2022/12/23 04:05:02;;;;;;;16.15;14.02;;;;;;;;;;5282320;28;20029;-69
2022/12/23 04:07:35;;;;;;;19.73;14.77;;;;;;;;;;5279507;28;20035;-68
2022/12/23 04:10:08;;;;;;;15.75;14.13;;;;;;;;;;5281985;28;20498;-68
2022/12/23 04:12:39;;;;;;;18.33;15.35;;;;;;;;;;5280797;28;20035;-69
2022/12/23 04:15:10;;;;;;;20.30;15.98;;;;;;;;;;5282416;28;20021;-69
2022/12/23 04:17:41;;;;;;;17.48;15.05;;;;;;;;;;5281502;28;20039;-69
2022/12/23 04:20:13;;;;;;;21.02;15.77;;;;;;;;;;5281325;28;20490;-67
2022/12/23 04:22:44;;;;;;;18.15;15.13;;;;;;;;;;5281606;28;20077;-68
2022/12/23 04:25:16;;;;;;;18.75;15.95;;;;;;;;;;5282271;28;20028;-68
2022/12/23 04:27:47;;;;;;;17.38;15.02;;;;;;;;;;5280850;28;20030;-68
2022/12/23 04:30:18;;;;;;;17.05;15.07;;;;;;;;;;5282118;28;20058;-68
2022/12/23 04:32:49;;;;;;;17.80;15.63;;;;;;;;;;5281343;28;20017;-68
2022/12/23 04:35:21;;;;;;;17.45;15.13;;;;;;;;;;5280785;28;20039;-68
2022/12/23 04:37:52;;;;;;;20.52;15.52;;;;;;;;;;5281702;28;20013;-68
2022/12/23 04:40:23;;;;;;;16.40;14.60;;;;;;;;;;5281023;28;20055;-68
2022/12/23 04:42:54;;;;;;;15.82;14.23;;;;;;;;;;5281608;28;20103;-68
2022/12/23 04:45:26;;;;;;;19.23;16.27;;;;;;;;;;5281404;28;20048;-68
2022/12/23 04:47:57;;;;;;;18.60;14.95;;;;;;;;;;5281016;28;20088;-68
2022/12/23 04:50:28;;;;;;;18.00;15.40;;;;;;;;;;5281732;28;20071;-68
2022/12/23 04:52:59;;;;;;;20.90;14.95;;;;;;;;;;5281388;28;20100;-68
2022/12/23 04:55:31;;;;;;;18.08;15.05;;;;;;;;;;5280713;28;20490;-68
2022/12/23 04:58:02;;;;;;;21.35;15.00;;;;;;;;;;5281308;28;20025;-68
2022/12/23 05:00:33;;;;;;;18.85;15.07;;;;;;;;;;5281479;28;20052;-68
2022/12/23 05:03:04;;;;;;;14.28;12.56;;;;;;;;;;5280650;28;20564;-68
2022/12/23 05:05:41;;;;;;;18.90;14.50;;;;;;;;;;5281529;28;20472;-68
2022/12/23 05:08:12;;;;;;;15.75;13.30;;;;;;;;;;5281569;28;20027;-68
2022/12/23 05:10:43;;;;;;;16.05;12.82;;;;;;;;;;5280160;28;20024;-68
2022/12/23 05:13:15;;;;;;;14.95;13.27;;;;;;;;;;5281518;28;20519;-68
2022/12/23 05:15:50;;;;;;;14.98;12.32;;;;;;;;;;5280267;28;20036;-69
2022/12/23 05:18:21;;;;;;;14.73;12.13;;;;;;;;;;5281313;28;20169;-69
2022/12/23 05:20:52;;;;;;;15.05;12.60;;;;;;;;;;5281184;28;20087;-69
2022/12/23 05:23:24;;;;;;;15.02;12.15;;;;;;;;;;5280575;28;20024;-69
2022/12/23 05:25:55;;;;;;;18.42;13.70;;;;;;;;;;5281096;28;20074;-68
2022/12/23 05:28:26;;;;;;;15.38;13.45;;;;;;;;;;5281224;28;20517;-68
2022/12/23 05:30:58;;;;;;;21.23;14.18;;;;;;;;;;5280372;28;20056;-68
2022/12/23 05:33:30;;;;;;;15.68;13.43;;;;;;;;;;5281159;28;20077;-68
2022/12/23 05:36:01;;;;;;;16.52;13.70;;;;;;;;;;5281372;28;20100;-69
2022/12/23 05:38:32;;;;;;;18.88;14.48;;;;;;;;;;5280549;28;20036;-69
2022/12/23 05:41:04;;;;;;;17.73;14.68;;;;;;;;;;5280923;28;20020;-69
2022/12/23 05:43:35;;;;;;;16.40;13.30;;;;;;;;;;5280181;28;20022;-69
2022/12/23 05:46:06;;;;;;;17.13;14.45;;;;;;;;;;5280846;28;20044;-69
2022/12/23 05:48:37;;;;;;;18.45;14.43;;;;;;;;;;5283285;28;20073;-69
2022/12/23 05:51:08;;;;;;;16.00;14.32;;;;;;;;;;5284092;28;20028;-68
2022/12/23 05:53:40;;;;;;;15.95;14.25;;;;;;;;;;5284452;28;20157;-68
2022/12/23 05:56:11;;;;;;;17.25;14.57;;;;;;;;;;5284830;28;20020;-68
2022/12/23 05:58:42;;;;;;;16.75;14.35;;;;;;;;;;5283363;28;20104;-69
2022/12/23 06:01:13;;;;;;;20.17;16.13;;;;;;;;;;5285052;28;20013;-68
2022/12/23 06:03:44;;;;;;;18.52;16.10;;;;;;;;;;5284128;28;20025;-68
2022/12/23 06:06:16;;;;;;;17.90;15.40;;;;;;;;;;5284610;28;20013;-69
2022/12/23 06:08:47;;;;;;;20.13;16.98;;;;;;;;;;5284016;28;20023;-69
2022/12/23 06:11:18;;;;;;;21.65;17.85;;;;;;;;;;5284866;28;20074;-69
2022/12/23 06:13:51;;;;;;;23.70;19.08;;;;;;;;;;5283398;28;20024;-68
2022/12/23 06:16:22;;;;;;;20.80;18.67;;;;;;;;;;5284452;28;20634;-68
2022/12/23 06:18:56;;;;;;;25.58;19.30;;;;;;;;;;5283337;28;20033;-67
2022/12/23 06:21:27;;;;;;;23.65;19.95;;;;;;;;;;5284030;28;20017;-68
2022/12/23 06:23:58;;;;;;;22.73;20.10;;;;;;;;;;5284236;28;20034;-68
2022/12/23 06:26:30;;;;;;;22.08;19.50;;;;;;;;;;5283352;28;20024;-68
2022/12/23 06:29:01;;;;;;;23.95;19.25;;;;;;;;;;5284072;28;20025;-68
2022/12/23 06:31:32;;;;;;;27.95;19.77;;;;;;;;;;5283865;28;20099;-68
2022/12/23 06:34:03;;;;;;;28.60;21.05;;;;;;;;;;5283336;28;20495;-68
2022/12/23 06:36:35;;;;;;;26.92;21.17;;;;;;;;;;5284011;28;20013;-70
2022/12/23 06:39:07;;;;;;;28.55;22.30;;;;;;;;;;5283657;28;20050;-67
2022/12/23 06:41:38;;;;;;;25.35;19.85;;;;;;;;;;5282776;28;20491;-67
2022/12/23 06:44:09;;;;;;;28.15;22.48;;;;;;;;;;5283652;28;20048;-67
2022/12/23 06:46:41;;;;;;;24.30;21.55;;;;;;;;;;5283636;28;20099;-69
2022/12/23 06:49:12;;;;;;;27.30;21.52;;;;;;;;;;5283198;28;20077;-68
2022/12/23 06:51:43;;;;;;;27.08;22.77;;;;;;;;;;5282891;28;20107;-68
2022/12/23 06:54:14;;;;;;;28.85;21.88;;;;;;;;;;5282778;28;20475;-67
2022/12/23 06:56:45;;;;;;;31.20;23.33;;;;;;;;;;5283172;28;20031;-67
2022/12/23 06:59:16;;;;;;;26.67;23.00;;;;;;;;;;5283451;28;20028;-68
2022/12/23 07:01:48;;;;;;;31.48;24.80;;;;;;;;;;5282331;28;20021;-69
2022/12/23 07:04:19;;;;;;;30.88;26.15;;;;;;;;;;5283605;28;20095;-68
2022/12/23 07:06:50;;;;;;;29.40;24.27;;;;;;;;;;5282814;28;20020;-69
2022/12/23 07:09:21;;;;;;;33.78;25.27;;;;;;;;;;5282181;28;20052;-69
2022/12/23 07:11:52;;;;;;;30.30;25.95;;;;;;;;;;5283067;28;20379;-69
2022/12/23 07:14:24;;;;;;;30.67;25.15;;;;;;;;;;5282819;28;20024;-69
2022/12/23 07:16:55;;;;;;;27.45;23.65;;;;;;;;;;5282200;28;20048;-69
2022/12/23 07:19:26;;;;;;;28.60;23.73;;;;;;;;;;5282705;28;20090;-69
2022/12/23 07:21:57;;;;;;;30.80;24.40;;;;;;;;;;5282823;28;20423;-68
2022/12/23 07:24:28;;;;;;;29.90;24.80;;;;;;;;;;5282207;28;20028;-69
2022/12/23 07:26:59;;;;;;;34.83;25.63;;;;;;;;;;5282640;28;20263;-69
2022/12/23 07:29:31;;;;;;;29.80;24.30;;;;;;;;;;5281991;28;20020;-69
2022/12/23 07:32:02;;;;;;;30.85;24.90;;;;;;;;;;5282310;28;20103;-68
2022/12/23 07:34:33;;;;;;;31.88;24.80;;;;;;;;;;5282170;28;20035;-69
2022/12/23 07:37:04;;;;;;;31.67;24.95;;;;;;;;;;5281395;28;20404;-69
2022/12/23 07:39:36;;;;;;;33.33;25.73;;;;;;;;;;5282318;28;20024;-69
2022/12/23 07:42:07;;;;;;;28.55;23.33;;;;;;;;;;5282192;28;20031;-68
2022/12/23 07:44:38;;;;;;;32.55;24.15;;;;;;;;;;5280784;28;20453;-70
2022/12/23 07:47:09;;;;;;;31.02;25.60;;;;;;;;;;5282084;28;20020;-69
2022/12/23 07:49:40;;;;;;;31.90;26.95;;;;;;;;;;5281667;28;20024;-69
2022/12/23 07:52:12;;;;;;;36.90;26.58;;;;;;;;;;5281491;28;20032;-68
2022/12/23 07:54:43;;;;;;;33.47;27.05;;;;;;;;;;5281371;28;20085;-69
2022/12/23 07:57:14;;;;;;;37.00;27.75;;;;;;;;;;5281379;28;20021;-68
2022/12/23 07:59:45;;;;;;;38.42;28.65;;;;;;;;;;5281282;28;20037;-68
2022/12/23 08:02:16;;;;;;;32.42;25.55;;;;;;;;;;5281792;28;20028;-68
2022/12/23 08:04:47;;;;;;;31.25;24.58;;;;;;;;;;5280461;28;20494;-68
2022/12/23 08:07:19;;;;;;;30.10;24.15;;;;;;;;;;5282011;28;20019;-68
2022/12/23 08:09:50;;;;;;;29.45;23.90;;;;;;;;;;5281544;28;20179;-68
2022/12/23 08:12:21;;;;;;;27.02;22.17;;;;;;;;;;5280374;28;20021;-69
2022/12/23 08:14:52;;;;;;;30.30;22.35;;;;;;;;;;5281704;28;20265;-68
2022/12/23 08:17:30;;;;;;;29.25;21.17;;;;;;;;;;5281592;28;20403;-67
2022/12/23 08:20:01;;;;;;;28.98;22.77;;;;;;;;;;5280658;28;20191;-68
2022/12/23 08:22:33;;;;;;;29.10;22.58;;;;;;;;;;5281560;28;20422;-67
2022/12/23 08:25:05;;;;;;;25.15;18.85;;;;;;;;;;5292407;28;20060;-67
2022/12/23 08:27:36;;;;;;;26.20;19.75;;;;;;;;;;5301646;28;20050;-68
2022/12/23 08:30:08;;;;;;;27.88;19.77;;;;;;;;;;5302409;28;20332;-68
2022/12/23 08:32:39;;;;;;;25.25;18.73;;;;;;;;;;5301813;28;20027;-69
2022/12/23 08:35:10;;;;;;;24.63;18.75;;;;;;;;;;5302929;28;20032;-69
2022/12/23 08:37:41;;;;;;;22.00;18.27;;;;;;;;;;5302103;28;20114;-68
2022/12/23 08:40:13;;;;;;;24.30;17.92;;;;;;;;;;5295554;28;20024;-67
2022/12/23 08:42:44;;;;;;;21.75;17.05;;;;;;;;;;5301309;28;20098;-68
2022/12/23 08:45:15;;;;;;;23.67;16.38;;;;;;;;;;5301946;28;20075;-68
2022/12/23 08:47:46;;;;;;;24.50;16.75;;;;;;;;;;5300635;28;20780;-68
2022/12/23 08:50:17;;;;;;;19.45;15.18;;;;;;;;;;5302136;28;20020;-68
2022/12/23 08:52:49;;;;;;;20.00;15.45;;;;;;;;;;5301117;28;20020;-68
2022/12/23 08:55:20;;;;;;;18.50;14.50;;;;;;;;;;5300900;28;20456;-68
2022/12/23 08:57:51;;;;;;;19.73;13.70;;;;;;;;;;5301669;28;20597;-66
2022/12/23 09:00:22;;;;;;;22.85;15.23;;;;;;;;;;5301696;28;20107;-68
2022/12/23 09:02:53;;;;;;;24.20;15.45;;;;;;;;;;5287312;28;20044;-67
2022/12/23 09:05:24;;;;;;;20.98;13.77;;;;;;;;;;5298199;28;20035;-67
2022/12/23 09:07:56;;;;;;;18.25;13.80;;;;;;;;;;5299800;28;20019;-67
2022/12/23 09:10:27;;;;;;;19.60;12.05;;;;;;;;;;5300686;28;20047;-67
2022/12/23 09:12:59;;;;;;;19.50;12.32;;;;;;;;;;5290643;28;20020;-67
2022/12/23 09:15:30;;;;;;;15.75;11.57;;;;;;;;;;5284546;28;20450;-67
2022/12/23 09:18:01;;;;;;;16.67;10.93;;;;;;;;;;5286524;28;20035;-67
2022/12/23 09:20:32;;;;;;;19.92;11.38;;;;;;;;;;5277931;28;20039;-67
2022/12/23 09:23:04;;;;;;;13.75;10.20;;;;;;;;;;5279258;28;20416;-67
2022/12/23 09:25:35;;;;;;;16.90;10.43;;;;;;;;;;5283692;28;20027;-68
2022/12/23 09:28:07;;;;;;;15.32;10.50;;;;;;;;;;5282890;28;20029;-67
2022/12/23 09:30:39;;;;;;;14.23;9.65;;;;;;;;;;5282870;28;20465;-67
2022/12/23 09:33:10;;;;;;;13.10;9.57;;;;;;;;;;5283823;28;20035;-67
2022/12/23 09:35:41;;;;;;;17.70;10.70;;;;;;;;;;5282852;28;20082;-68
2022/12/23 09:38:13;;;;;;;14.27;8.85;;;;;;;;;;5294275;28;20012;-67
2022/12/23 09:40:44;;;;;;;16.73;9.23;;;;;;;;;;5304270;28;20020;-67
2022/12/23 09:43:15;;;;;;;15.32;9.77;;;;;;;;;;5304587;28;20024;-68
2022/12/23 09:46:05;;;;;;;13.40;8.10;;;;;;;;;;5304549;28;20055;-67
2022/12/23 09:48:44;;;;;;;18.15;8.32;;;;;;;;;;5305515;28;20692;-67
2022/12/23 09:51:17;;;;;;;16.88;7.97;;;;;;;;;;5304924;28;20053;-68
2022/12/23 09:53:55;;;;;;;11.13;7.75;;;;;;;;;;5304857;28;20020;-68
2022/12/23 09:56:33;;;;;;;11.45;7.50;;;;;;;;;;5305263;28;20027;-66
2022/12/23 09:59:10;;;;;;;10.20;7.10;;;;;;;;;;5304424;28;20039;-66
2022/12/23 10:02:02;;;;;;;12.25;7.28;;;;;;;;;;5305068;28;20043;-66
2022/12/23 10:04:40;;;;;;;11.70;6.82;;;;;;;;;;5304416;28;20050;-67
2022/12/23 10:07:38;;;;;;;12.35;6.60;;;;;;;;;;5305869;28;20443;-69
2022/12/23 10:10:15;;;;;;;10.18;6.32;;;;;;;;;;5302577;28;20024;-69
2022/12/23 10:12:48;;;;;;;11.75;7.60;;;;;;;;;;5304553;28;20030;-69
2022/12/23 10:15:40;;;;;;;14.52;8.52;;;;;;;;;;5305529;28;20016;-68
2022/12/23 10:18:16;;;;;;;15.85;8.65;;;;;;;;;;5304275;28;20145;-68
2022/12/23 10:21:09;;;;;;;13.20;7.90;;;;;;;;;;5304852;28;20051;-68
2022/12/23 10:23:42;;;;;;;12.73;8.80;;;;;;;;;;5304774;28;20020;-69
2022/12/23 10:26:18;;;;;;;15.55;8.82;;;;;;;;;;5304718;28;20024;-68
2022/12/23 10:28:54;;;;;;;11.82;9.10;;;;;;;;;;5304714;28;20016;-68
2022/12/23 10:31:39;;;;;;;12.60;7.78;;;;;;;;;;5304891;28;20016;-68
2022/12/23 10:34:19;;;;;;;12.65;7.88;;;;;;;;;;5303910;28;20039;-68
2022/12/23 10:36:56;;;;;;;12.25;8.55;;;;;;;;;;5304620;28;20107;-69
2022/12/23 10:39:48;;;;;;;14.02;7.90;;;;;;;;;;5303845;28;20031;-69
2022/12/23 10:42:30;;;;;;;11.88;7.82;;;;;;;;;;5305303;28;20119;-69
2022/12/23 10:45:04;;;;;;;12.23;6.63;;;;;;;;;;5304436;28;20087;-69
2022/12/23 10:47:50;;;;;;;9.90;6.50;;;;;;;;;;5303993;28;20089;-69
2022/12/23 10:50:24;;;;;;;8.35;5.90;;;;;;;;;;5304868;28;20028;-69
2022/12/23 10:52:56;;;;;;;9.05;6.65;;;;;;;;;;5304694;28;20028;-69
2022/12/23 10:55:30;;;;;;;11.02;5.95;;;;;;;;;;5303954;28;20016;-69
2022/12/23 10:58:07;;;;;;;10.02;5.68;;;;;;;;;;5304230;28;20028;-68
2022/12/23 11:00:40;;;;;;;7.95;5.18;;;;;;;;;;5303590;28;20031;-68
2022/12/23 11:03:17;;;;;;;9.10;5.22;;;;;;;;;;5304815;28;20027;-68
2022/12/23 11:05:50;;;;;;;9.43;4.95;;;;;;;;;;5303846;28;20024;-67
2022/12/23 11:08:22;;;;;;;8.10;4.70;;;;;;;;;;5303618;28;20131;-68
2022/12/23 11:10:53;;;;;;;8.75;4.82;;;;;;;;;;5304010;28;20376;-67
2022/12/23 11:13:36;;;;;;;8.50;4.25;;;;;;;;;;5304244;28;20371;-68
2022/12/23 11:16:26;;;;;;;8.23;4.43;;;;;;;;;;5303299;28;20078;-66
2022/12/23 11:19:03;;;;;;;10.07;4.00;;;;;;;;;;5303724;28;20039;-67
2022/12/23 11:21:34;;;;;;;9.70;4.40;;;;;;;;;;5302967;28;20103;-67
2022/12/23 11:24:11;;;;;;;7.05;4.10;;;;;;;;;;5303974;28;20539;-66
2022/12/23 11:26:47;;;;;;;8.05;4.22;;;;;;;;;;5303368;28;20063;-67
2022/12/23 11:29:23;;;;;;;7.65;3.92;;;;;;;;;;5299068;28;20388;-67
2022/12/23 11:31:55;;;;;;;4.93;3.70;;;;;;;;;;5303153;28;20073;-67
2022/12/23 11:34:26;;;;;;;7.75;4.43;;;;;;;;;;5303523;28;20422;-67
2022/12/23 11:36:59;;;;;;;10.52;4.82;;;;;;;;;;5302466;28;20134;-67
2022/12/23 11:39:32;;;;;;;7.55;3.85;;;;;;;;;;5303075;28;20054;-67
2022/12/23 11:42:11;;;;;;;7.90;3.83;;;;;;;;;;5302896;28;20893;-67
2022/12/23 11:44:48;;;;;;;6.97;3.45;;;;;;;;;;5301879;28;20101;-67
2022/12/23 11:47:22;;;;;;;8.95;3.58;;;;;;;;;;5303015;28;20384;-67
2022/12/23 11:49:58;;;;;;;11.40;4.05;;;;;;;;;;5302629;28;20036;-67
2022/12/23 11:52:30;;;;;;;7.13;4.22;;;;;;;;;;5302432;28;20028;-67
2022/12/23 11:55:04;;;;;;;9.30;3.90;;;;;;;;;;5302371;28;20126;-68
2022/12/23 11:57:38;;;;;;;8.30;4.07;;;;;;;;;;5299534;28;20020;-67
2022/12/23 12:00:20;;;;;;;6.03;3.20;;;;;;;;;;5303272;28;20032;-67
2022/12/23 12:02:53;;;;;;;7.40;3.92;;;;;;;;;;5302579;28;20096;-67
2022/12/23 12:05:31;;;;;;;5.97;3.25;;;;;;;;;;5302325;28;20028;-67
2022/12/23 12:08:05;;;;;;;6.65;3.65;;;;;;;;;;5297872;28;20016;-67
2022/12/23 12:10:37;;;;;;;6.85;3.45;;;;;;;;;;5301603;28;20051;-68
2022/12/23 12:13:38;;;;;;;7.38;3.42;;;;;;;;;;5303200;28;20020;-69
2022/12/23 12:16:12;;;;;;;5.65;3.08;;;;;;;;;;5281442;28;20039;-67
2022/12/23 12:18:45;;;;;;;6.15;3.30;;;;;;;;;;5280910;28;20037;-68
2022/12/23 12:21:22;;;;;;;10.50;3.70;;;;;;;;;;5282292;28;20032;-68
2022/12/23 12:23:57;;;;;;;6.43;3.40;;;;;;;;;;5281825;28;20065;-67
2022/12/23 12:26:29;;;;;;;6.50;3.50;;;;;;;;;;5280908;28;20275;-68
2022/12/23 12:29:06;;;;;;;8.43;4.22;;;;;;;;;;5281321;28;20055;-69
2022/12/23 12:31:56;;;;;;;6.68;3.90;;;;;;;;;;5280737;28;20039;-68
2022/12/23 12:34:27;;;;;;;8.13;3.17;;;;;;;;;;5281508;28;20052;-68
2022/12/23 12:37:02;;;;;;;7.32;3.28;;;;;;;;;;5281529;28;20129;-67
2022/12/23 12:39:36;;;;;;;7.07;3.45;;;;;;;;;;5280713;28;20683;-68
2022/12/23 12:42:14;;;;;;;6.70;3.08;;;;;;;;;;5281156;28;20008;-69
2022/12/23 12:44:54;;;;;;;7.65;3.95;;;;;;;;;;5280841;28;20052;-68
2022/12/23 12:47:30;;;;;;;7.70;3.97;;;;;;;;;;5280581;28;20460;-68
2022/12/23 12:50:05;;;;;;;7.35;3.90;;;;;;;;;;5281326;28;20029;-68
2022/12/23 12:52:40;;;;;;;5.30;3.15;;;;;;;;;;5280156;28;20032;-69
2022/12/23 12:55:26;;;;;;;8.38;4.20;;;;;;;;;;5295594;28;20020;-68
2022/12/23 12:58:01;;;;;;;7.43;3.75;;;;;;;;;;5305357;28;20024;-69
2022/12/23 13:00:37;;;;;;;7.70;4.20;;;;;;;;;;5305756;28;20032;-69
2022/12/23 13:03:18;;;;;;;7.53;3.97;;;;;;;;;;5306444;28;20024;-69
2022/12/23 13:06:07;;;;;;;8.27;3.95;;;;;;;;;;5303746;28;20110;-69
2022/12/23 13:08:38;;;;;;;4.63;3.55;;;;;;;;;;5283882;28;20466;-68
2022/12/23 13:11:28;;;;;;;6.88;3.80;;;;;;;;;;5285338;28;20135;-68
2022/12/23 13:14:09;;;;;;;6.43;3.45;;;;;;;;;;5284173;28;20020;-69
2022/12/23 13:16:43;;;;;;;6.03;3.33;;;;;;;;;;5284809;28;20433;-68
2022/12/23 13:19:14;;;;;;;4.80;3.75;;;;;;;;;;5285281;28;20025;-67
2022/12/23 13:21:45;;;;;;;6.22;3.33;;;;;;;;;;5283766;28;20374;-68
2022/12/23 13:24:16;;;;;;;4.72;3.63;;;;;;;;;;5284986;28;20596;-67
2022/12/23 13:26:47;;;;;;;5.07;3.13;;;;;;;;;;5284485;28;20600;-66
2022/12/23 13:29:24;;;;;;;3.63;2.78;;;;;;;;;;5284246;28;20262;-67
2022/12/23 13:31:55;;;;;;;4.78;2.72;;;;;;;;;;5284756;28;20298;-67
2022/12/23 13:34:30;;;;;;;5.68;2.78;;;;;;;;;;5284447;28;20079;-67
2022/12/23 13:37:04;;;;;;;4.10;2.50;;;;;;;;;;5283685;28;20274;-67
2022/12/23 13:39:41;;;;;;;3.92;2.63;;;;;;;;;;5284529;28;20110;-67
2022/12/23 13:42:23;;;;;;;4.43;2.95;;;;;;;;;;5284268;28;20363;-67
2022/12/23 13:44:56;;;;;;;3.45;2.90;;;;;;;;;;5284066;28;20084;-68
2022/12/23 13:47:30;;;;;;;5.78;2.65;;;;;;;;;;5284618;28;20120;-68
2022/12/23 13:50:10;;;;;;;2.50;2.28;;;;;;;;;;5283834;28;20099;-67
2022/12/23 13:52:54;;;;;;;2.55;2.35;;;;;;;;;;5283972;28;20054;-67
2022/12/23 13:55:34;;;;;;;4.75;2.47;;;;;;;;;;5284539;28;20027;-67
2022/12/23 13:58:24;;;;;;;6.05;2.92;;;;;;;;;;5283823;28;20025;-67
2022/12/23 14:00:57;;;;;;;4.38;2.95;;;;;;;;;;5300909;28;20036;-67
2022/12/23 14:03:32;;;;;;;2.70;1.90;;;;;;;;;;5304328;28;20019;-67
2022/12/23 14:06:22;;;;;;;2.75;2.20;;;;;;;;;;5305507;28;20535;-66
2022/12/23 14:08:53;;;;;;;2.33;1.38;;;;;;;;;;5304005;28;20024;-67
2022/12/23 14:11:26;;;;;;;2.80;1.65;;;;;;;;;;5304466;28;20475;-67
2022/12/23 14:13:58;;;;;;;1.95;1.27;;;;;;;;;;5305355;28;20024;-67
2022/12/23 14:16:29;;;;;;;2.10;1.45;;;;;;;;;;5304770;28;20016;-67
2022/12/23 14:19:10;;;;;;;3.22;1.58;;;;;;;;;;5303790;28;20036;-67
2022/12/23 14:22:06;;;;;;;1.77;1.17;;;;;;;;;;5304884;28;20259;-67
2022/12/23 14:24:52;;;;;;;2.30;1.38;;;;;;;;;;5285350;28;20411;-67
2022/12/23 14:27:40;;;;;;;2.42;1.80;;;;;;;;;;5300901;28;20456;-67
2022/12/23 14:30:22;;;;;;;2.20;1.30;;;;;;;;;;5304983;28;20031;-67
2022/12/23 14:32:57;;;;;;;2.90;1.80;;;;;;;;;;5303648;28;20008;-66
2022/12/23 14:35:28;;;;;;;2.45;1.45;;;;;;;;;;5304978;28;20138;-67
2022/12/23 14:38:09;;;;;;;3.13;1.20;;;;;;;;;;5304636;28;20083;-66
2022/12/23 14:40:40;;;;;;;1.90;1.27;;;;;;;;;;5304391;28;20882;-67
2022/12/23 14:43:20;;;;;;;2.35;1.80;;;;;;;;;;5304920;28;20070;-66
2022/12/23 14:46:05;;;;;;;2.78;2.30;;;;;;;;;;5302254;28;20306;-66
2022/12/23 14:48:43;;;;;;;4.07;2.10;;;;;;;;;;5304061;28;20056;-66
2022/12/23 14:51:22;;;;;;;2.55;2.05;;;;;;;;;;5304505;28;20378;-66
2022/12/23 14:53:53;;;;;;;2.38;1.95;;;;;;;;;;5303632;28;20112;-67
2022/12/23 14:56:39;;;;;;;2.53;2.00;;;;;;;;;;5304339;28;20143;-66
2022/12/23 14:59:22;;;;;;;2.53;1.83;;;;;;;;;;5303986;28;20040;-67
2022/12/23 15:01:59;;;;;;;2.28;1.80;;;;;;;;;;5304021;28;20527;-67
2022/12/23 15:04:33;;;;;;;2.25;2.05;;;;;;;;;;5304146;28;20062;-66
2022/12/23 15:07:12;;;;;;;2.65;2.38;;;;;;;;;;5303538;28;20372;-66
2022/12/23 15:09:43;;;;;;;;;;;;;;;;;;5304302;28;20012;-67
2022/12/23 15:12:17;;;;;;;3.10;2.90;;;;;;;;;;5304273;28;20347;-66
2022/12/23 15:14:55;;;;;;;4.22;3.92;;;;;;;;;;5303115;28;20016;-66
2022/12/23 15:17:28;;;;;;;3.97;3.67;;;;;;;;;;5304161;28;20017;-68
2022/12/23 15:20:11;;;;;;;5.10;4.70;;;;;;;;;;5302648;28;20059;-66
2022/12/23 15:22:44;;;;;;;4.88;4.50;;;;;;;;;;5302561;28;20087;-67
2022/12/23 15:25:20;;;;;;;5.07;4.75;;;;;;;;;;5304257;28;20020;-65
2022/12/23 15:27:52;;;;;;;5.72;5.10;;;;;;;;;;5303080;28;20020;-66
2022/12/23 15:30:24;;;;;;;6.88;6.40;;;;;;;;;;5303797;28;20038;-66
2022/12/23 15:33:00;;;;;;;6.45;6.05;;;;;;;;;;5303590;28;20105;-66
2022/12/23 15:35:33;;;;;;;7.05;6.60;;;;;;;;;;5302802;28;20028;-66
2022/12/23 15:38:04;;;;;;;6.95;6.45;;;;;;;;;;5303347;28;20012;-66
2022/12/23 15:40:37;;;;;;;7.97;7.38;;;;;;;;;;5303701;28;20413;-66